createdAt,value
2023-05-07T00:00:23.022Z,2.55
2023-05-07T00:02:50.280Z,2.65
2023-05-07T00:05:17.598Z,2.58
2023-05-07T00:07:44.839Z,2.72
2023-05-07T00:10:13.940Z,3.10
2023-05-07T00:12:41.897Z,3.33
2023-05-07T00:15:09.926Z,3.25
2023-05-07T00:17:37.717Z,3.17
2023-05-07T00:20:06.102Z,3.58
2023-05-07T00:22:33.710Z,3.30
2023-05-07T00:25:01.321Z,3.97
2023-05-07T00:27:28.511Z,3.50
2023-05-07T00:29:55.874Z,3.08
2023-05-07T00:32:23.100Z,3.90
2023-05-07T00:34:52.132Z,3.42
2023-05-07T00:37:19.560Z,3.40
2023-05-07T00:39:46.806Z,3.25
2023-05-07T00:42:14.234Z,3.42
2023-05-07T00:44:41.631Z,3.85
2023-05-07T00:47:08.953Z,3.25
2023-05-07T00:49:41.363Z,3.42
2023-05-07T00:52:12.914Z,4.05
2023-05-07T00:54:41.261Z,4.05
2023-05-07T00:57:09.993Z,3.60
2023-05-07T00:59:37.353Z,3.75
2023-05-07T01:02:04.895Z,3.63
2023-05-07T01:04:32.320Z,4.60
2023-05-07T01:07:01.885Z,3.83
2023-05-07T01:09:30.144Z,3.97
2023-05-07T01:11:58.908Z,3.75
2023-05-07T01:14:26.842Z,3.67
2023-05-07T01:16:54.708Z,3.28
2023-05-07T01:19:24.370Z,3.97
2023-05-07T01:21:57.176Z,5.07
2023-05-07T01:24:25.375Z,3.92
2023-05-07T01:26:52.863Z,4.43
2023-05-07T01:29:20.396Z,4.22
2023-05-07T01:31:51.832Z,4.63
2023-05-07T01:34:21.277Z,4.60
2023-05-07T01:36:49.878Z,4.72
2023-05-07T01:39:18.167Z,5.63
2023-05-07T01:41:46.209Z,3.85
2023-05-07T01:44:14.784Z,4.18
2023-05-07T01:46:42.083Z,4.57
2023-05-07T01:49:10.045Z,4.03
2023-05-07T01:51:37.928Z,4.97
2023-05-07T01:54:05.222Z,5.20
2023-05-07T01:56:32.965Z,4.13
2023-05-07T01:59:00.282Z,4.47
2023-05-07T02:01:29.033Z,4.00
2023-05-07T02:03:56.406Z,4.30
2023-05-07T02:06:26.613Z,4.45
2023-05-07T02:08:58.434Z,5.05
2023-05-07T02:11:26.351Z,3.88
2023-05-07T02:13:54.111Z,4.38
2023-05-07T02:16:22.465Z,4.40
2023-05-07T02:18:50.230Z,4.07
2023-05-07T02:21:17.456Z,4.00
2023-05-07T02:23:44.779Z,3.97
2023-05-07T02:26:12.258Z,4.50
2023-05-07T02:28:39.646Z,4.20
2023-05-07T02:31:07.591Z,4.72
2023-05-07T02:33:36.384Z,4.50
2023-05-07T02:36:08.465Z,4.15
2023-05-07T02:38:38.068Z,4.15
2023-05-07T02:41:05.966Z,4.00
2023-05-07T02:43:33.395Z,4.50
2023-05-07T02:46:04.128Z,5.20
2023-05-07T02:48:31.541Z,4.30
2023-05-07T02:50:59.743Z,4.10
2023-05-07T02:53:27.652Z,4.38
2023-05-07T02:55:56.356Z,4.10
2023-05-07T02:58:23.940Z,4.00
2023-05-07T03:00:51.979Z,4.28
2023-05-07T03:03:21.155Z,4.63
2023-05-07T03:05:48.473Z,4.65
2023-05-07T03:08:15.862Z,4.03
2023-05-07T03:10:43.055Z,4.65
2023-05-07T03:13:11.047Z,4.05
2023-05-07T03:15:38.275Z,5.15
2023-05-07T03:18:05.584Z,5.45
2023-05-07T03:20:33.145Z,4.95
2023-05-07T03:23:00.716Z,4.82
2023-05-07T03:25:28.346Z,5.32
2023-05-07T03:27:55.745Z,4.65
2023-05-07T03:30:26.372Z,4.50
2023-05-07T03:32:53.796Z,4.32
2023-05-07T03:35:21.679Z,4.22
2023-05-07T03:37:49.194Z,4.10
2023-05-07T03:40:16.764Z,5.22
2023-05-07T03:42:49.334Z,4.20
2023-05-07T03:45:19.010Z,4.68
2023-05-07T03:47:52.559Z,4.40
2023-05-07T03:50:21.921Z,4.82
2023-05-07T03:52:49.702Z,3.47
2023-05-07T03:55:19.744Z,3.95
2023-05-07T03:57:52.007Z,4.07
2023-05-07T04:00:21.414Z,4.15
2023-05-07T04:02:48.755Z,4.70
2023-05-07T04:05:22.965Z,4.00
2023-05-07T04:07:53.574Z,3.92
2023-05-07T04:10:27.071Z,3.58
2023-05-07T04:12:58.161Z,4.15
2023-05-07T04:15:27.083Z,3.53
2023-05-07T04:17:54.414Z,3.75
2023-05-07T04:20:23.599Z,3.58
2023-05-07T04:22:58.144Z,3.50
2023-05-07T04:25:27.739Z,3.60
2023-05-07T04:28:01.108Z,3.90
2023-05-07T04:30:30.079Z,3.50
2023-05-07T04:32:58.104Z,3.67
2023-05-07T04:35:28.237Z,3.88
2023-05-07T04:37:56.049Z,3.83
2023-05-07T04:40:23.628Z,3.72
2023-05-07T04:42:51.389Z,3.45
2023-05-07T04:45:19.285Z,3.80
2023-05-07T04:47:48.224Z,4.18
2023-05-07T04:50:15.657Z,4.15
2023-05-07T04:52:44.777Z,3.60
2023-05-07T04:55:12.756Z,3.85
2023-05-07T04:57:42.534Z,3.05
2023-05-07T05:00:15.421Z,3.90
2023-05-07T05:02:45.671Z,3.63
2023-05-07T05:05:16.296Z,3.67
2023-05-07T05:07:44.722Z,4.18
2023-05-07T05:10:12.623Z,3.47
2023-05-07T05:12:41.795Z,3.40
2023-05-07T05:15:10.085Z,3.15
2023-05-07T05:17:38.068Z,3.42
2023-05-07T05:20:07.020Z,3.30
2023-05-07T05:22:35.222Z,3.00
2023-05-07T05:25:03.072Z,2.80
2023-05-07T05:27:30.732Z,3.20
2023-05-07T05:29:58.038Z,3.50
2023-05-07T05:32:25.523Z,3.20
2023-05-07T05:34:56.635Z,3.25
2023-05-07T05:37:24.185Z,3.63
2023-05-07T05:39:51.912Z,3.78
2023-05-07T05:42:19.756Z,3.00
2023-05-07T05:44:46.903Z,2.95
2023-05-07T05:47:14.873Z,3.22
2023-05-07T05:49:44.230Z,3.28
2023-05-07T05:52:15.306Z,3.60
2023-05-07T05:54:42.656Z,3.65
2023-05-07T05:57:10.082Z,3.53
2023-05-07T05:59:37.835Z,3.08
2023-05-07T06:02:05.108Z,3.30
2023-05-07T06:04:32.429Z,3.05
2023-05-07T06:06:59.804Z,3.10
2023-05-07T06:09:27.525Z,2.92
2023-05-07T06:11:54.671Z,3.33
2023-05-07T06:14:22.778Z,3.97
2023-05-07T06:16:50.252Z,3.30
2023-05-07T06:19:19.194Z,3.55
2023-05-07T06:21:46.521Z,3.75
2023-05-07T06:24:14.105Z,3.20
2023-05-07T06:26:41.280Z,3.20
2023-05-07T06:29:09.036Z,3.67
2023-05-07T06:31:36.256Z,3.20
2023-05-07T06:34:07.244Z,3.08
2023-05-07T06:36:38.053Z,3.42
2023-05-07T06:39:14.891Z,3.10
2023-05-07T06:41:42.152Z,3.50
2023-05-07T06:44:18.567Z,3.28
2023-05-07T06:46:49.537Z,3.33
2023-05-07T06:49:16.973Z,3.15
2023-05-07T06:51:44.074Z,2.63
2023-05-07T06:54:11.536Z,3.03
2023-05-07T06:56:40.973Z,3.20
2023-05-07T06:59:08.912Z,3.20
2023-05-07T07:01:40.337Z,3.08
2023-05-07T07:04:09.189Z,2.67
2023-05-07T07:06:37.742Z,3.25
2023-05-07T07:09:09.696Z,3.15
2023-05-07T07:11:36.938Z,2.45
2023-05-07T07:14:06.123Z,3.00
2023-05-07T07:16:37.820Z,3.15
2023-05-07T07:19:05.103Z,3.22
2023-05-07T07:21:33.090Z,3.80
2023-05-07T07:24:00.627Z,3.25
2023-05-07T07:26:27.817Z,2.80
2023-05-07T07:28:55.580Z,3.10
2023-05-07T07:31:23.942Z,2.80
2023-05-07T07:33:53.292Z,3.63
2023-05-07T07:36:23.360Z,3.38
2023-05-07T07:38:51.316Z,3.10
2023-05-07T07:41:18.859Z,3.10
2023-05-07T07:43:49.656Z,3.15
2023-05-07T07:46:18.678Z,3.72
2023-05-07T07:48:46.051Z,3.20
2023-05-07T07:51:13.673Z,3.50
2023-05-07T07:53:42.277Z,3.50
2023-05-07T07:56:09.477Z,3.28
2023-05-07T07:58:37.797Z,3.95
2023-05-07T08:01:05.546Z,3.65
2023-05-07T08:03:33.708Z,3.25
2023-05-07T08:06:02.962Z,3.80
2023-05-07T08:08:31.762Z,4.18
2023-05-07T08:10:59.019Z,3.42
2023-05-07T08:13:31.376Z,3.33
2023-05-07T08:15:59.859Z,3.88
2023-05-07T08:18:29.519Z,3.30
2023-05-07T08:20:58.688Z,3.13
2023-05-07T08:23:27.706Z,3.00
2023-05-07T08:25:55.377Z,3.40
2023-05-07T08:28:25.898Z,3.30
2023-05-07T08:30:53.370Z,3.30
2023-05-07T08:33:21.037Z,4.43
2023-05-07T08:35:48.541Z,3.85
2023-05-07T08:38:16.617Z,3.38
2023-05-07T08:40:44.317Z,3.30
2023-05-07T08:43:19.766Z,3.50
2023-05-07T08:45:50.646Z,3.28
2023-05-07T08:48:26.546Z,3.30
2023-05-07T08:51:01.213Z,3.28
2023-05-07T08:53:28.890Z,3.47
2023-05-07T08:55:56.915Z,3.70
2023-05-07T08:58:24.505Z,3.50
2023-05-07T09:00:54.449Z,3.47
2023-05-07T09:03:23.169Z,3.22
2023-05-07T09:05:53.406Z,3.45
2023-05-07T09:08:27.454Z,3.15
2023-05-07T09:10:57.399Z,3.00
2023-05-07T09:13:25.116Z,3.80
2023-05-07T09:15:52.731Z,2.95
2023-05-07T09:18:21.829Z,3.75
2023-05-07T09:20:50.501Z,4.15
2023-05-07T09:23:21.908Z,4.15
2023-05-07T09:25:49.690Z,3.67
2023-05-07T09:28:24.248Z,3.80
2023-05-07T09:30:51.618Z,3.70
2023-05-07T09:33:20.453Z,4.22
2023-05-07T09:35:53.207Z,3.70
2023-05-07T09:38:23.660Z,4.60
2023-05-07T09:40:59.449Z,4.10
2023-05-07T09:43:27.119Z,3.70
2023-05-07T09:46:00.770Z,3.70
2023-05-07T09:48:30.865Z,3.45
2023-05-07T09:51:02.982Z,3.65
2023-05-07T09:53:35.841Z,3.65
2023-05-07T09:56:06.861Z,4.33
2023-05-07T09:58:38.149Z,4.25
2023-05-07T10:01:07.089Z,4.05
2023-05-07T10:03:37.875Z,4.28
2023-05-07T10:06:06.917Z,4.47
2023-05-07T10:08:36.728Z,3.78
2023-05-07T10:11:07.139Z,4.00
2023-05-07T10:13:36.668Z,4.55
2023-05-07T10:16:05.919Z,4.88
2023-05-07T10:18:41.627Z,4.80
2023-05-07T10:21:18.975Z,4.13
2023-05-07T10:23:52.695Z,3.72
2023-05-07T10:26:24.880Z,4.93
2023-05-07T10:28:57.648Z,4.57
2023-05-07T10:31:37.959Z,4.88
2023-05-07T10:34:11.128Z,4.80
2023-05-07T10:36:40.710Z,4.47
2023-05-07T10:39:09.203Z,4.90
2023-05-07T10:41:38.398Z,4.30
2023-05-07T10:44:05.853Z,4.90
2023-05-07T10:46:36.695Z,4.93
2023-05-07T10:49:12.685Z,4.88
2023-05-07T10:52:07.051Z,4.50
2023-05-07T10:54:37.640Z,4.13
2023-05-07T10:57:13.049Z,4.30
2023-05-07T10:59:42.301Z,3.95
2023-05-07T11:02:17.682Z,4.95
2023-05-07T11:04:47.127Z,4.70
2023-05-07T11:07:26.747Z,5.00
2023-05-07T11:10:02.562Z,5.25
2023-05-07T11:12:34.946Z,4.50
2023-05-07T11:15:05.422Z,4.13
2023-05-07T11:17:53.927Z,4.78
2023-05-07T11:20:21.998Z,4.78
2023-05-07T11:22:55.492Z,4.75
2023-05-07T11:25:31.104Z,4.70
2023-05-07T11:28:08.212Z,4.72
2023-05-07T11:30:36.966Z,4.35
2023-05-07T11:33:07.030Z,4.18
2023-05-07T11:35:37.108Z,4.18
2023-05-07T11:38:07.561Z,4.22
2023-05-07T11:40:49.571Z,3.90
2023-05-07T11:43:17.163Z,3.33
2023-05-07T11:45:45.619Z,3.60
2023-05-07T11:48:14.634Z,3.28
2023-05-07T11:50:45.354Z,3.80
2023-05-07T11:53:14.114Z,2.60
2023-05-07T11:55:42.023Z,2.85
2023-05-07T11:58:11.976Z,2.72
2023-05-07T12:00:39.337Z,2.50
2023-05-07T12:03:07.224Z,2.63
2023-05-07T12:05:35.275Z,2.53
2023-05-07T12:08:02.698Z,2.50
2023-05-07T12:10:29.957Z,2.15
2023-05-07T12:12:57.438Z,2.30
2023-05-07T12:15:24.825Z,2.55
2023-05-07T12:17:53.787Z,2.50
2023-05-07T12:20:21.228Z,2.22
2023-05-07T12:22:51.608Z,2.58
2023-05-07T12:25:21.358Z,2.63
2023-05-07T12:27:53.993Z,2.40
2023-05-07T12:30:21.420Z,2.50
2023-05-07T12:32:53.467Z,2.40
2023-05-07T12:35:29.343Z,2.30
2023-05-07T12:38:01.040Z,2.50
2023-05-07T12:40:31.702Z,2.22
2023-05-07T12:43:00.940Z,2.72
2023-05-07T12:45:28.514Z,2.72
2023-05-07T12:47:55.946Z,3.45
2023-05-07T12:50:24.685Z,3.28
2023-05-07T12:52:51.976Z,3.30
2023-05-07T12:55:19.486Z,3.13
2023-05-07T12:57:52.703Z,2.80
2023-05-07T13:03:01.167Z,3.50
2023-05-07T13:05:28.502Z,3.22
2023-05-07T13:07:56.944Z,4.05
2023-05-07T13:10:25.571Z,3.20
2023-05-07T13:12:53.788Z,3.20
2023-05-07T13:15:21.550Z,2.60
2023-05-07T13:17:49.033Z,2.92
2023-05-07T13:20:16.703Z,2.90
2023-05-07T13:22:44.199Z,2.67
2023-05-07T13:25:11.671Z,3.30
2023-05-07T13:27:39.305Z,2.85
2023-05-07T13:30:07.902Z,2.85
2023-05-07T13:32:35.346Z,2.33
2023-05-07T13:35:02.821Z,3.05
2023-05-07T13:37:30.331Z,3.38
2023-05-07T13:39:57.626Z,2.90
2023-05-07T13:42:25.023Z,3.33
2023-05-07T13:44:52.358Z,3.15
2023-05-07T13:47:20.743Z,3.20
2023-05-07T13:49:50.836Z,3.10
2023-05-07T13:52:18.628Z,2.83
2023-05-07T13:54:46.177Z,3.10
2023-05-07T13:57:13.589Z,3.53
2023-05-07T13:59:41.732Z,3.50
2023-05-07T14:02:10.261Z,4.05
2023-05-07T14:04:39.581Z,4.05
2023-05-07T14:07:07.129Z,3.78
2023-05-07T14:09:34.359Z,5.25
2023-05-07T14:12:02.584Z,4.28
2023-05-07T14:14:30.043Z,3.88
2023-05-07T14:16:57.500Z,4.18
2023-05-07T14:19:24.987Z,4.28
2023-05-07T14:21:52.385Z,3.72
2023-05-07T14:24:34.605Z,4.03
2023-05-07T14:27:05.759Z,3.67
2023-05-07T14:29:33.106Z,3.40
2023-05-07T14:32:00.427Z,3.78
2023-05-07T14:34:27.774Z,3.38
2023-05-07T14:36:55.113Z,3.17
2023-05-07T14:39:22.498Z,3.28
2023-05-07T14:41:49.982Z,3.20
2023-05-07T14:44:17.197Z,3.60
2023-05-07T14:46:44.646Z,3.22
2023-05-07T14:49:18.116Z,3.58
2023-05-07T14:51:46.456Z,3.78
2023-05-07T14:54:15.022Z,3.47
2023-05-07T14:56:42.990Z,3.65
2023-05-07T14:59:11.516Z,4.60
2023-05-07T15:01:41.603Z,3.70
2023-05-07T15:04:09.195Z,3.70
2023-05-07T15:06:36.671Z,3.65
2023-05-07T15:09:04.231Z,3.47
2023-05-07T15:11:31.831Z,4.60
2023-05-07T15:13:59.071Z,4.35
2023-05-07T15:16:26.698Z,4.75
2023-05-07T15:18:54.115Z,4.97
2023-05-07T15:21:21.781Z,4.45
2023-05-07T15:23:49.019Z,4.80
2023-05-07T15:26:16.481Z,3.53
2023-05-07T15:28:44.026Z,4.25
2023-05-07T15:31:11.458Z,4.40
2023-05-07T15:33:38.943Z,4.30
2023-05-07T15:36:07.021Z,4.22
2023-05-07T15:38:34.269Z,3.80
2023-05-07T15:41:01.769Z,3.70
2023-05-07T15:43:29.155Z,3.85
2023-05-07T15:45:57.253Z,4.00
2023-05-07T15:48:24.732Z,3.83
2023-05-07T15:50:52.151Z,3.65
2023-05-07T15:53:19.391Z,3.83
2023-05-07T15:55:47.764Z,4.13
2023-05-07T15:58:20.436Z,3.78
2023-05-07T16:00:47.988Z,4.22
2023-05-07T16:03:15.325Z,3.55
2023-05-07T16:05:42.739Z,3.95
2023-05-07T16:08:10.562Z,3.25
2023-05-07T16:10:37.933Z,3.35
2023-05-07T16:13:05.248Z,3.50
2023-05-07T16:15:32.781Z,3.83
2023-05-07T16:18:00.181Z,3.70
2023-05-07T16:20:30.856Z,4.57
2023-05-07T16:22:58.870Z,3.40
2023-05-07T16:25:26.332Z,5.90
2023-05-07T16:27:54.933Z,8.75
2023-05-07T16:30:22.592Z,3.90
2023-05-07T16:32:49.940Z,4.72
2023-05-07T16:35:17.752Z,4.75
2023-05-07T16:37:45.070Z,5.35
2023-05-07T16:40:12.828Z,5.55
2023-05-07T16:42:40.223Z,4.40
2023-05-07T16:45:09.040Z,3.75
2023-05-07T16:47:36.454Z,5.32
2023-05-07T16:50:05.969Z,4.40
2023-05-07T16:52:33.517Z,3.40
2023-05-07T16:55:01.741Z,3.25
2023-05-07T16:57:30.605Z,3.80
2023-05-07T16:59:59.248Z,3.45
2023-05-07T17:02:26.611Z,3.78
2023-05-07T17:04:54.086Z,3.28
2023-05-07T17:07:21.441Z,3.17
2023-05-07T17:09:48.871Z,3.03
2023-05-07T17:12:16.460Z,2.90
2023-05-07T17:14:43.949Z,3.28
2023-05-07T17:17:11.233Z,3.38
2023-05-07T17:19:40.073Z,2.97
2023-05-07T17:22:07.543Z,3.15
2023-05-07T17:24:34.946Z,2.75
2023-05-07T17:27:04.620Z,3.08
2023-05-07T17:29:32.060Z,2.45
2023-05-07T17:31:59.437Z,3.15
2023-05-07T17:34:26.872Z,2.42
2023-05-07T17:36:54.829Z,2.90
2023-05-07T17:39:22.170Z,2.97
2023-05-07T17:41:49.400Z,2.67
2023-05-07T17:44:16.837Z,2.83
2023-05-07T17:46:44.167Z,2.55
2023-05-07T17:49:11.597Z,2.42
2023-05-07T17:51:52.701Z,2.78
2023-05-07T17:54:21.754Z,2.75
2023-05-07T17:56:49.148Z,38.83
2023-05-07T17:59:16.591Z,47.97
2023-05-07T18:01:44.405Z,22.17
2023-05-07T18:04:11.997Z,14.18
2023-05-07T18:06:40.088Z,10.02
2023-05-07T18:09:07.695Z,4.55
2023-05-07T18:11:35.226Z,3.70
2023-05-07T18:14:02.957Z,3.20
2023-05-07T18:16:30.286Z,3.15
2023-05-07T18:18:57.895Z,2.83
2023-05-07T18:21:25.249Z,2.60
2023-05-07T18:23:52.687Z,2.70
2023-05-07T18:26:20.088Z,2.45
2023-05-07T18:28:47.640Z,2.00
2023-05-07T18:31:14.958Z,1.80
2023-05-07T18:33:42.491Z,1.75
2023-05-07T18:36:09.721Z,2.30
2023-05-07T18:38:37.121Z,1.67
2023-05-07T18:41:05.701Z,1.73
2023-05-07T18:43:34.181Z,2.08
2023-05-07T18:46:02.051Z,2.17
2023-05-07T18:48:29.625Z,2.00
2023-05-07T18:50:57.161Z,2.28
2023-05-07T18:53:24.720Z,2.75
2023-05-07T18:55:53.512Z,2.67
2023-05-07T18:58:21.032Z,2.45
2023-05-07T19:00:49.270Z,2.53
2023-05-07T19:03:18.003Z,2.60
2023-05-07T19:05:46.064Z,2.70
2023-05-07T19:08:13.691Z,2.58
2023-05-07T19:10:41.162Z,2.00
2023-05-07T19:13:08.608Z,2.20
2023-05-07T19:15:35.960Z,2.33
2023-05-07T19:18:03.697Z,2.25
2023-05-07T19:20:30.986Z,2.30
2023-05-07T19:22:58.470Z,2.30
2023-05-07T19:25:25.898Z,2.10
2023-05-07T19:27:53.288Z,2.10
2023-05-07T19:30:20.579Z,2.50
2023-05-07T19:32:48.098Z,2.38
2023-05-07T19:35:16.042Z,2.30
2023-05-07T19:37:43.600Z,2.88
2023-05-07T19:40:11.705Z,2.17
2023-05-07T19:42:39.079Z,2.00
2023-05-07T19:45:07.138Z,2.13
2023-05-07T19:47:34.736Z,1.80
2023-05-07T19:50:02.075Z,1.70
2023-05-07T19:52:29.399Z,1.80
2023-05-07T19:54:56.990Z,2.22
2023-05-07T19:57:24.585Z,2.80
2023-05-07T19:59:51.903Z,2.70
2023-05-07T20:02:19.485Z,2.25
2023-05-07T20:04:46.824Z,2.13
2023-05-07T20:07:14.365Z,1.95
2023-05-07T20:09:42.259Z,1.90
2023-05-07T20:12:09.669Z,2.20
2023-05-07T20:14:36.954Z,2.25
2023-05-07T20:17:04.414Z,1.73
2023-05-07T20:19:34.019Z,2.08
2023-05-07T20:22:03.027Z,2.17
2023-05-07T20:24:30.473Z,1.90
2023-05-07T20:26:57.904Z,1.98
2023-05-07T20:29:25.226Z,1.88
2023-05-07T20:31:52.717Z,1.98
2023-05-07T20:34:20.470Z,1.63
2023-05-07T20:36:47.991Z,2.10
2023-05-07T20:39:16.308Z,1.90
2023-05-07T20:41:44.369Z,2.00
2023-05-07T20:44:12.093Z,1.92
2023-05-07T20:46:39.577Z,1.88
2023-05-07T20:49:07.099Z,1.70
2023-05-07T20:51:34.815Z,1.90
2023-05-07T20:54:02.241Z,1.90
2023-05-07T20:56:29.661Z,2.15
2023-05-07T20:58:56.977Z,2.05
2023-05-07T21:01:24.569Z,1.85
2023-05-07T21:03:54.291Z,2.13
2023-05-07T21:06:21.742Z,1.90
2023-05-07T21:08:49.104Z,2.03
2023-05-07T21:11:16.588Z,1.80
2023-05-07T21:13:43.953Z,1.98
2023-05-07T21:16:11.574Z,1.90
2023-05-07T21:18:39.123Z,1.80
2023-05-07T21:21:09.217Z,1.98
2023-05-07T21:23:37.406Z,2.00
2023-05-07T21:26:04.974Z,1.67
2023-05-07T21:28:32.221Z,2.00
2023-05-07T21:30:59.701Z,1.83
2023-05-07T21:33:27.018Z,2.20
2023-05-07T21:35:54.459Z,2.13
2023-05-07T21:38:21.865Z,1.90
2023-05-07T21:40:49.245Z,1.80
2023-05-07T21:43:16.531Z,1.90
2023-05-07T21:45:44.010Z,2.05
2023-05-07T21:48:11.359Z,2.08
2023-05-07T21:50:38.743Z,2.10
2023-05-07T21:53:05.949Z,2.30
2023-05-07T21:55:33.151Z,1.60
2023-05-07T21:58:05.520Z,2.00
2023-05-07T22:00:33.641Z,1.75
2023-05-07T22:03:01.281Z,2.08
2023-05-07T22:05:28.879Z,2.38
2023-05-07T22:07:57.186Z,2.22
2023-05-07T22:10:24.448Z,2.20
2023-05-07T22:12:51.808Z,2.28
2023-05-07T22:15:19.125Z,2.17
2023-05-07T22:17:46.286Z,1.90
2023-05-07T22:20:13.802Z,2.10
2023-05-07T22:22:44.217Z,1.98
2023-05-07T22:25:11.499Z,2.00
2023-05-07T22:27:39.029Z,2.40
2023-05-07T22:30:07.003Z,1.67
2023-05-07T22:32:34.243Z,2.40
2023-05-07T22:35:01.568Z,2.42
2023-05-07T22:37:28.820Z,2.03
2023-05-07T22:39:56.157Z,2.10
2023-05-07T22:42:23.650Z,1.80
2023-05-07T22:44:53.025Z,2.40
2023-05-07T22:47:20.239Z,2.13
2023-05-07T22:49:47.716Z,2.25
2023-05-07T22:52:15.301Z,2.00
2023-05-07T22:54:42.501Z,2.15
2023-05-07T22:57:09.804Z,2.60
2023-05-07T22:59:37.020Z,2.13
2023-05-07T23:02:05.307Z,2.22
2023-05-07T23:04:32.601Z,1.92
2023-05-07T23:06:59.811Z,2.00
2023-05-07T23:09:27.108Z,2.03
2023-05-07T23:11:54.479Z,2.10
2023-05-07T23:14:23.876Z,2.00
2023-05-07T23:16:52.001Z,2.58
2023-05-07T23:19:19.412Z,2.42
2023-05-07T23:21:46.594Z,2.50
2023-05-07T23:24:13.870Z,2.00
2023-05-07T23:26:41.395Z,2.10
2023-05-07T23:29:08.602Z,2.30
2023-05-07T23:31:36.020Z,2.17
2023-05-07T23:34:03.371Z,1.90
2023-05-07T23:36:31.541Z,1.83
2023-05-07T23:38:59.093Z,2.40
2023-05-07T23:41:26.399Z,1.90
2023-05-07T23:43:53.825Z,2.22
2023-05-07T23:46:21.323Z,2.17
2023-05-07T23:48:48.681Z,3.03
2023-05-07T23:51:16.673Z,2.80
2023-05-07T23:53:43.903Z,2.33
2023-05-07T23:56:11.689Z,2.70
2023-05-07T23:58:38.965Z,3.10
